Weather at Aarhus Airport

Public forecast

Using degrees Celsius for public forecast. Weather courtesy of forecast.io.

Current aviation weather report (METAR) for Aarhus Airport

2024/05/22 07:20 (retrieved 29 minutes ago)

EKAH 220720Z AUTO 08013KT 9999 NCD 18/11 Q1013

Aviation forecast (TAF) for Aarhus Airport

2024/05/22 06:31 (retrieved 1 hour ago)

TAF EKAH 220503Z 2206/2306 08012KT CAVOK TEMPO 2206/2218 09015G25KT